createdAt,value
2022-12-08T00:02:11.151Z,3.09
2022-12-08T00:07:39.955Z,3.14
2022-12-08T00:12:36.920Z,3.13
2022-12-08T00:17:33.689Z,3.12
2022-12-08T00:22:32.474Z,3.08
2022-12-08T00:27:29.225Z,3.22
2022-12-08T00:32:34.848Z,3.38
2022-12-08T00:37:31.697Z,3.49
2022-12-08T00:42:28.575Z,3.34
2022-12-08T00:47:25.489Z,3.43
2022-12-08T00:52:22.207Z,3.50
2022-12-08T00:57:19.137Z,3.56
2022-12-08T01:02:24.794Z,3.60
2022-12-08T01:07:21.509Z,3.72
2022-12-08T01:12:18.460Z,3.80
2022-12-08T01:17:24.477Z,3.74
2022-12-08T01:22:21.429Z,3.83
2022-12-08T01:27:18.109Z,3.89
2022-12-08T01:32:14.778Z,4.09
2022-12-08T01:37:12.786Z,4.13
2022-12-08T01:42:21.429Z,4.07
2022-12-08T01:47:18.313Z,4.02
2022-12-08T01:52:21.472Z,4.06
2022-12-08T01:57:23.737Z,3.95
2022-12-08T02:02:21.983Z,4.25
2022-12-08T02:07:18.935Z,4.07
2022-12-08T02:12:21.680Z,4.11
2022-12-08T02:17:31.748Z,4.00
2022-12-08T02:28:13.011Z,3.74
2022-12-08T02:33:50.001Z,3.84
2022-12-08T02:39:00.451Z,3.70
2022-12-08T02:44:39.114Z,3.78
2022-12-08T02:49:36.246Z,3.78
2022-12-08T02:54:32.896Z,3.91
2022-12-08T02:59:51.003Z,3.95
2022-12-08T03:05:06.345Z,3.98
2022-12-08T03:10:12.999Z,3.98
2022-12-08T03:15:14.580Z,3.88
2022-12-08T03:20:26.790Z,3.93
2022-12-08T03:25:29.520Z,3.91
2022-12-08T03:30:28.801Z,3.92
2022-12-08T03:35:30.206Z,3.88
2022-12-08T03:40:27.041Z,3.88
2022-12-08T03:45:23.797Z,4.12
2022-12-08T03:50:20.648Z,4.00
2022-12-08T03:55:17.530Z,4.02
2022-12-08T04:00:16.819Z,4.02
2022-12-08T04:05:13.708Z,4.00
2022-12-08T04:10:12.974Z,3.90
2022-12-08T04:15:10.799Z,3.93
2022-12-08T04:20:07.849Z,4.06
2022-12-08T04:25:05.102Z,4.03
2022-12-08T04:30:04.338Z,4.08
2022-12-08T04:35:01.181Z,4.06
2022-12-08T04:39:57.798Z,3.97
2022-12-08T04:45:05.593Z,4.00
2022-12-08T04:50:02.879Z,4.09
2022-12-08T04:54:59.741Z,4.13
2022-12-08T04:59:56.681Z,4.05
2022-12-08T05:04:56.478Z,4.26
2022-12-08T05:09:53.425Z,4.11
2022-12-08T05:14:50.267Z,4.08
2022-12-08T05:19:50.291Z,4.14
2022-12-08T05:24:47.953Z,4.21
2022-12-08T05:29:50.543Z,4.18
2022-12-08T05:46:49.509Z,4.02
2022-12-08T06:26:26.824Z,3.96
2022-12-08T06:31:25.063Z,4.10
2022-12-08T06:36:24.197Z,4.19
2022-12-08T06:41:21.244Z,4.16
2022-12-08T06:46:19.095Z,4.22
2022-12-08T08:34:18.703Z,4.05
2022-12-08T08:39:15.331Z,4.07
2022-12-08T08:44:14.845Z,4.06
2022-12-08T11:43:30.003Z,4.14
2022-12-08T11:48:34.697Z,4.01
2022-12-08T11:54:08.942Z,4.19
2022-12-08T11:59:26.582Z,4.23
2022-12-08T12:04:48.136Z,4.26
2022-12-08T12:10:24.622Z,4.25
2022-12-08T12:16:11.610Z,4.27
2022-12-08T12:28:11.006Z,4.40
2022-12-08T12:33:25.923Z,4.35
2022-12-08T12:43:42.242Z,4.51
2022-12-08T12:48:49.312Z,4.38
2022-12-08T13:15:40.153Z,4.47
2022-12-08T13:21:17.834Z,4.47
2022-12-08T13:26:17.989Z,4.46
2022-12-08T14:08:59.933Z,4.31
2022-12-08T14:13:51.386Z,4.29
2022-12-08T14:39:29.239Z,4.23
2022-12-08T14:44:31.347Z,4.13
2022-12-08T14:54:33.060Z,3.93
2022-12-08T14:59:31.274Z,3.90
2022-12-08T15:05:09.678Z,3.85
2022-12-08T15:10:27.174Z,3.77
2022-12-08T15:15:23.641Z,3.75
2022-12-08T15:20:33.384Z,3.76
2022-12-08T15:25:31.322Z,3.76
2022-12-08T15:30:28.512Z,3.88
2022-12-08T15:35:25.073Z,3.90
2022-12-08T15:40:23.052Z,4.03
2022-12-08T15:45:31.128Z,3.95
2022-12-08T15:50:28.200Z,3.90
2022-12-08T15:55:24.911Z,4.12
2022-12-08T16:06:20.203Z,4.14
2022-12-08T16:11:56.532Z,3.91
2022-12-08T16:16:43.425Z,4.10
2022-12-08T16:22:23.800Z,4.23
2022-12-08T16:32:16.751Z,4.07
2022-12-08T16:37:18.745Z,4.11
2022-12-08T16:42:35.943Z,4.06
2022-12-08T16:47:36.371Z,4.09
2022-12-08T16:52:34.608Z,4.10
2022-12-08T16:57:43.013Z,4.29
2022-12-08T17:02:41.260Z,4.03
2022-12-08T17:07:43.256Z,3.91
2022-12-08T17:12:40.538Z,4.09
2022-12-08T17:17:38.878Z,3.92
2022-12-08T17:22:38.437Z,3.99
2022-12-08T17:27:36.152Z,3.83
2022-12-08T17:32:32.879Z,3.86
2022-12-08T17:37:29.692Z,3.80
2022-12-08T17:42:29.703Z,3.74
2022-12-08T17:47:29.778Z,3.72
2022-12-08T17:52:28.680Z,3.67
2022-12-08T17:57:25.860Z,3.66
2022-12-08T18:02:25.130Z,3.67
2022-12-08T18:07:23.153Z,3.56
2022-12-08T18:12:24.001Z,3.61
2022-12-08T18:17:20.971Z,3.45
2022-12-08T18:22:17.855Z,3.46
2022-12-08T18:27:18.952Z,3.77
2022-12-08T18:32:15.859Z,3.77
2022-12-08T18:37:12.555Z,3.59
2022-12-08T18:42:23.531Z,3.60
2022-12-08T18:47:20.321Z,3.67
2022-12-08T18:57:22.488Z,3.98
2022-12-08T19:02:29.634Z,3.96
2022-12-08T19:07:27.271Z,3.78
2022-12-08T19:12:24.095Z,3.85
2022-12-08T19:17:21.172Z,3.74
2022-12-08T19:27:32.482Z,3.76
2022-12-08T19:32:30.953Z,3.68
2022-12-08T19:37:30.649Z,3.56
2022-12-08T19:42:46.210Z,3.54
2022-12-08T19:52:54.985Z,3.44
2022-12-08T19:57:52.482Z,3.16
2022-12-08T20:02:49.436Z,3.21
2022-12-08T20:13:19.468Z,2.97
2022-12-08T20:23:23.825Z,3.13
2022-12-08T20:28:20.891Z,2.90
2022-12-08T20:33:17.917Z,3.01
2022-12-08T20:38:14.786Z,2.77
2022-12-08T20:43:11.741Z,2.84
2022-12-08T20:48:14.372Z,2.81
2022-12-08T20:53:11.586Z,2.85
2022-12-08T20:58:08.736Z,2.79
2022-12-08T21:03:05.767Z,3.05
2022-12-08T21:08:02.668Z,3.03
2022-12-08T21:13:11.038Z,3.17
2022-12-08T21:18:08.338Z,3.02
2022-12-08T21:28:32.779Z,3.21
2022-12-08T21:39:15.814Z,3.04
2022-12-08T21:44:38.398Z,2.87
2022-12-08T21:49:43.484Z,2.89
2022-12-08T21:54:54.845Z,2.87
2022-12-08T22:00:06.977Z,2.73
2022-12-08T22:05:21.658Z,2.76
2022-12-08T22:10:29.591Z,2.90
2022-12-08T22:15:31.385Z,2.74
2022-12-08T22:20:29.450Z,2.65
2022-12-08T22:25:28.426Z,2.70
2022-12-08T22:30:38.851Z,2.73
2022-12-08T22:35:36.220Z,2.71
2022-12-08T22:40:33.324Z,2.87
2022-12-08T22:45:30.076Z,2.91
2022-12-08T22:50:27.458Z,2.71
2022-12-08T22:55:24.643Z,2.73
2022-12-08T23:00:21.729Z,2.66
2022-12-08T23:05:18.886Z,2.75
2022-12-08T23:10:19.003Z,2.43
2022-12-08T23:15:17.028Z,2.59
2022-12-08T23:20:17.703Z,2.47
2022-12-08T23:25:22.532Z,2.58
2022-12-08T23:30:27.828Z,2.52
2022-12-08T23:35:27.398Z,2.28
2022-12-08T23:40:24.744Z,2.43
2022-12-08T23:45:22.088Z,2.46
2022-12-08T23:50:19.887Z,2.20
2022-12-08T23:55:24.329Z,2.27
